الصفحة الرئيسية
METAR-TAF:

METAR-TAF

مطار :

مطار دالاس فورت ورث الدولي

دالاس / فورت وورث, تكساس, الولايات المتحدة

دائرة عرض: 32-53-49N, خط طول: 097-01-19W, ارتفاع: 183 متر

مراقبة الطقس الحالي

تاريخ ووقت الإصدار 57 دقيقة قبل الساعة 09:53UTC
ريح 5 عقدة من الجنوب الشرقي
درجة الحرارة 4°درجة مئوية
الرطوبة 70%
ضغط 1026 hPa
الرؤية: 16.1 كم
غيوم مفككة على ارتفاع 30000 قدم

METAR: KDFW 120953Z 14005KT 10SM BKN300 04/M01 A3030 RMK AO2 SLP259 T00391006

زمن: 04:50 (10:50 UTC)

توقعات

تاريخ ووقت الإصدار 1ساعة و 45 دقيقة قبل الساعة 09:05UTC
التوقعات صالحة من12 الساعة 09 UTC إلى 13 الساعة 12 UTC
ريح 8 عقدة من الجنوب/الجنوب الشرقي
الرؤية: 10 كم
غيوم مفككة على ارتفاع 30000 قدم

TAF: KDFW 120905Z 1209/1312 16008KT P6SM BKN300

أرصاد الطقس والتوقعات من أكثر من 4000 مطار (تقارير الطقس للمطار METAR والتنبؤ بالطقس بالمطارTAF).

المحطات المتاحة هي النقط الصفراء والحمراء على الخريطة.

حرك المؤشر فوق النقطة لمعرفة اسم المحطة.

ثم انقر لمعرفة أرصاد وتوقعات الطقس.

لتغيير الخارطة: اضغط على الأزرار الخضراء مع رمز الصليب الأسود للتكبير. على الزر الأخضر مع شرطة للتصغير، أو على الأسهم الخضراء للخرائط المجاورة.


METAR-TAF: